sensor_id;sensor_type;location;lat;lon;timestamp;pressure;altitude;pressure_sealevel;temperature;humidity
62402;BME280;48440;51.224;22.506;2022-10-26T00:00:50;99366.38;;;12.90;85.80
62402;BME280;48440;51.224;22.506;2022-10-26T00:03:16;99366.66;;;12.89;85.34
62402;BME280;48440;51.224;22.506;2022-10-26T00:05:44;99369.63;;;12.87;85.31
62402;BME280;48440;51.224;22.506;2022-10-26T00:08:10;99361.47;;;12.87;85.31
62402;BME280;48440;51.224;22.506;2022-10-26T00:10:39;99375.91;;;12.88;85.36
62402;BME280;48440;51.224;22.506;2022-10-26T00:13:11;99369.06;;;12.85;85.38
62402;BME280;48440;51.224;22.506;2022-10-26T00:15:41;99370.97;;;12.85;85.07
62402;BME280;48440;51.224;22.506;2022-10-26T00:18:07;99367.72;;;12.83;84.96
62402;BME280;48440;51.224;22.506;2022-10-26T00:20:37;99370.97;;;12.80;85.37
62402;BME280;48440;51.224;22.506;2022-10-26T00:23:03;99380.78;;;12.81;85.21
62402;BME280;48440;51.224;22.506;2022-10-26T00:25:29;99376.41;;;12.80;85.11
62402;BME280;48440;51.224;22.506;2022-10-26T00:27:55;99380.75;;;12.76;85.04
62402;BME280;48440;51.224;22.506;2022-10-26T00:30:23;99375.31;;;12.76;85.46
62402;BME280;48440;51.224;22.506;2022-10-26T00:32:48;99383.19;;;12.77;85.52
62402;BME280;48440;51.224;22.506;2022-10-26T00:35:17;99375.31;;;12.76;85.24
62402;BME280;48440;51.224;22.506;2022-10-26T00:37:43;99382.91;;;12.74;85.02
62402;BME280;48440;51.224;22.506;2022-10-26T00:40:09;99385.38;;;12.75;85.27
62402;BME280;48440;51.224;22.506;2022-10-26T00:42:35;99388.91;;;12.76;85.31
62402;BME280;48440;51.224;22.506;2022-10-26T00:45:06;99388.09;;;12.75;85.35
62402;BME280;48440;51.224;22.506;2022-10-26T00:47:51;99385.13;;;12.72;84.83
62402;BME280;48440;51.224;22.506;2022-10-26T00:50:21;99382.38;;;12.72;84.96
62402;BME280;48440;51.224;22.506;2022-10-26T00:52:50;99385.63;;;12.69;84.73
62402;BME280;48440;51.224;22.506;2022-10-26T00:55:20;99390.78;;;12.65;84.60
62402;BME280;48440;51.224;22.506;2022-10-26T00:57:50;99391.06;;;12.64;84.53
62402;BME280;48440;51.224;22.506;2022-10-26T01:00:16;99390.50;;;12.62;84.55
62402;BME280;48440;51.224;22.506;2022-10-26T01:02:46;99396.50;;;12.64;84.91
62402;BME280;48440;51.224;22.506;2022-10-26T01:05:20;99394.34;;;12.66;85.06
62402;BME280;48440;51.224;22.506;2022-10-26T01:07:50;99391.34;;;12.67;84.90
62402;BME280;48440;51.224;22.506;2022-10-26T01:10:21;99393.81;;;12.69;84.90
62402;BME280;48440;51.224;22.506;2022-10-26T01:12:52;99392.72;;;12.70;84.82
62402;BME280;48440;51.224;22.506;2022-10-26T01:15:24;99395.72;;;12.68;85.09
62402;BME280;48440;51.224;22.506;2022-10-26T01:37:18;99391.06;;;12.64;84.40
62402;BME280;48440;51.224;22.506;2022-10-26T01:40:13;99382.91;;;12.64;84.83
62402;BME280;48440;51.224;22.506;2022-10-26T01:42:52;99385.88;;;12.62;84.56
62402;BME280;48440;51.224;22.506;2022-10-26T01:45:22;99395.13;;;12.61;84.82
62402;BME280;48440;51.224;22.506;2022-10-26T01:47:52;99392.13;;;12.57;84.63
62402;BME280;48440;51.224;22.506;2022-10-26T01:50:19;99392.66;;;12.60;84.96
62402;BME280;48440;51.224;22.506;2022-10-26T01:53:04;99382.56;;;12.55;84.74
62402;BME280;48440;51.224;22.506;2022-10-26T01:58:54;99383.13;;;12.57;84.28
62402;BME280;48440;51.224;22.506;2022-10-26T02:16:54;99406.22;;;12.49;84.57
62402;BME280;48440;51.224;22.506;2022-10-26T02:21:57;99414.38;;;12.49;84.27
62402;BME280;48440;51.224;22.506;2022-10-26T02:24:26;99412.75;;;12.48;83.99
62402;BME280;48440;51.224;22.506;2022-10-26T02:26:53;99414.38;;;12.49;84.15
62402;BME280;48440;51.224;22.506;2022-10-26T02:29:22;99408.94;;;12.49;83.73
62402;BME280;48440;51.224;22.506;2022-10-26T02:31:49;99416.03;;;12.50;83.94
62402;BME280;48440;51.224;22.506;2022-10-26T02:34:20;99411.41;;;12.51;83.67
62402;BME280;48440;51.224;22.506;2022-10-26T02:36:48;99421.47;;;12.50;83.95
62402;BME280;48440;51.224;22.506;2022-10-26T02:39:16;99419.81;;;12.49;83.59
62402;BME280;48440;51.224;22.506;2022-10-26T02:41:43;99420.38;;;12.46;83.61
62402;BME280;48440;51.224;22.506;2022-10-26T02:44:25;99415.75;;;12.47;83.73
62402;BME280;48440;51.224;22.506;2022-10-26T02:46:54;99423.09;;;12.46;83.78
62402;BME280;48440;51.224;22.506;2022-10-26T02:49:21;99425.81;;;12.46;83.99
62402;BME280;48440;51.224;22.506;2022-10-26T02:54:52;99425.53;;;12.48;83.93
62402;BME280;48440;51.224;22.506;2022-10-26T02:57:46;99432.09;;;12.47;83.74
62402;BME280;48440;51.224;22.506;2022-10-26T03:00:16;99438.88;;;12.49;83.95
62402;BME280;48440;51.224;22.506;2022-10-26T03:02:45;99431.28;;;12.51;83.79
62402;BME280;48440;51.224;22.506;2022-10-26T03:05:19;99440.78;;;12.49;83.48
62402;BME280;48440;51.224;22.506;2022-10-26T03:07:46;99439.16;;;12.48;83.17
62402;BME280;48440;51.224;22.506;2022-10-26T03:10:12;99442.69;;;12.43;83.57
62402;BME280;48440;51.224;22.506;2022-10-26T03:12:37;99443.75;;;12.42;83.25
62402;BME280;48440;51.224;22.506;2022-10-26T03:15:04;99451.94;;;12.42;83.69
62402;BME280;48440;51.224;22.506;2022-10-26T03:17:30;99442.94;;;12.42;83.57
62402;BME280;48440;51.224;22.506;2022-10-26T03:19:55;99453.53;;;12.38;83.50
62402;BME280;48440;51.224;22.506;2022-10-26T03:22:21;99448.09;;;12.38;83.32
62402;BME280;48440;51.224;22.506;2022-10-26T03:24:47;99452.44;;;12.39;83.68
62402;BME280;48440;51.224;22.506;2022-10-26T03:27:13;99450.28;;;12.41;83.62
62402;BME280;48440;51.224;22.506;2022-10-26T03:29:39;99456.81;;;12.40;83.28
62402;BME280;48440;51.224;22.506;2022-10-26T03:32:05;99454.34;;;12.39;83.29
62402;BME280;48440;51.224;22.506;2022-10-26T03:34:31;99457.06;;;12.39;83.36
62402;BME280;48440;51.224;22.506;2022-10-26T03:36:57;99456.81;;;12.40;83.33
62402;BME280;48440;51.224;22.506;2022-10-26T03:39:23;99464.97;;;12.40;83.56
62402;BME280;48440;51.224;22.506;2022-10-26T03:41:48;99464.72;;;12.42;83.42
62402;BME280;48440;51.224;22.506;2022-10-26T03:44:14;99458.97;;;12.38;83.46
62402;BME280;48440;51.224;22.506;2022-10-26T03:46:40;99462.78;;;12.37;83.33
62402;BME280;48440;51.224;22.506;2022-10-26T03:49:05;99474.47;;;12.38;83.27
62402;BME280;48440;51.224;22.506;2022-10-26T03:51:31;99472.03;;;12.36;83.49
62402;BME280;48440;51.224;22.506;2022-10-26T03:53:57;99470.38;;;12.35;83.38
62402;BME280;48440;51.224;22.506;2022-10-26T03:59:28;99461.09;;;12.31;83.51
62402;BME280;48440;51.224;22.506;2022-10-26T04:02:20;99460.28;;;12.31;83.75
62402;BME280;48440;51.224;22.506;2022-10-26T04:04:50;99467.63;;;12.30;83.40
62402;BME280;48440;51.224;22.506;2022-10-26T04:07:55;99465.72;;;12.31;83.55
62402;BME280;48440;51.224;22.506;2022-10-26T04:13:28;99471.69;;;12.28;83.59
62402;BME280;48440;51.224;22.506;2022-10-26T04:19:29;99471.69;;;12.28;83.56
62402;BME280;48440;51.224;22.506;2022-10-26T04:22:19;99475.75;;;12.25;83.42
62402;BME280;48440;51.224;22.506;2022-10-26T04:28:27;99464.03;;;12.24;84.01
62402;BME280;48440;51.224;22.506;2022-10-26T04:34:17;99468.66;;;12.24;83.95
62402;BME280;48440;51.224;22.506;2022-10-26T04:36:46;99470.56;;;12.23;83.80
62402;BME280;48440;51.224;22.506;2022-10-26T04:39:17;99471.13;;;12.26;84.16
62402;BME280;48440;51.224;22.506;2022-10-26T04:41:43;99474.66;;;12.26;83.87
62402;BME280;48440;51.224;22.506;2022-10-26T04:44:08;99471.13;;;12.26;83.70
62402;BME280;48440;51.224;22.506;2022-10-26T04:46:34;99473.28;;;12.23;83.53
62402;BME280;48440;51.224;22.506;2022-10-26T04:49:02;99479.81;;;12.22;83.86
62402;BME280;48440;51.224;22.506;2022-10-26T04:51:28;99479.81;;;12.22;83.52
62402;BME280;48440;51.224;22.506;2022-10-26T04:53:56;99478.97;;;12.22;83.83
62402;BME280;48440;51.224;22.506;2022-10-26T04:56:23;99473.00;;;12.20;83.92
62402;BME280;48440;51.224;22.506;2022-10-26T04:58:49;99485.53;;;12.21;83.97
62402;BME280;48440;51.224;22.506;2022-10-26T05:01:18;99484.97;;;12.19;83.96
62402;BME280;48440;51.224;22.506;2022-10-26T05:03:47;99485.50;;;12.16;84.32
62402;BME280;48440;51.224;22.506;2022-10-26T05:06:13;99488.22;;;12.16;83.94
62402;BME280;48440;51.224;22.506;2022-10-26T05:08:39;99494.22;;;12.18;84.29
62402;BME280;48440;51.224;22.506;2022-10-26T05:11:04;99488.22;;;12.16;84.45
62402;BME280;48440;51.224;22.506;2022-10-26T05:13:30;99496.94;;;12.18;84.34
62402;BME280;48440;51.224;22.506;2022-10-26T05:15:58;99499.34;;;12.14;84.38
62402;BME280;48440;51.224;22.506;2022-10-26T05:18:24;99499.34;;;12.14;84.40
62402;BME280;48440;51.224;22.506;2022-10-26T05:20:56;99495.81;;;12.14;84.68
62402;BME280;48440;51.224;22.506;2022-10-26T05:23:25;99501.81;;;12.16;84.54
62402;BME280;48440;51.224;22.506;2022-10-26T05:25:57;99500.72;;;12.17;84.66
62402;BME280;48440;51.224;22.506;2022-10-26T05:28:27;99504.28;;;12.17;84.67
62402;BME280;48440;51.224;22.506;2022-10-26T05:30:53;99508.88;;;12.17;84.96
62402;BME280;48440;51.224;22.506;2022-10-26T05:33:22;99507.56;;;12.19;84.78
62402;BME280;48440;51.224;22.506;2022-10-26T05:35:48;99509.47;;;12.19;84.66
62402;BME280;48440;51.224;22.506;2022-10-26T05:38:18;99520.59;;;12.17;85.06
62402;BME280;48440;51.224;22.506;2022-10-26T05:40:50;99509.16;;;12.15;84.90
62402;BME280;48440;51.224;22.506;2022-10-26T05:43:25;99515.16;;;12.17;84.87
62402;BME280;48440;51.224;22.506;2022-10-26T05:45:52;99523.31;;;12.17;85.04
62402;BME280;48440;51.224;22.506;2022-10-26T05:48:19;99520.34;;;12.19;85.00
62402;BME280;48440;51.224;22.506;2022-10-26T05:50:45;99534.19;;;12.17;85.18
62402;BME280;48440;51.224;22.506;2022-10-26T05:53:14;99531.47;;;12.17;85.13
62402;BME280;48440;51.224;22.506;2022-10-26T05:55:40;99541.78;;;12.15;85.46
62402;BME280;48440;51.224;22.506;2022-10-26T05:58:10;99543.44;;;12.16;85.42
62402;BME280;48440;51.224;22.506;2022-10-26T06:06:01;99536.09;;;12.17;85.54
62402;BME280;48440;51.224;22.506;2022-10-26T06:08:27;99546.97;;;12.17;85.60
62402;BME280;48440;51.224;22.506;2022-10-26T06:10:54;99550.78;;;12.16;85.82
62402;BME280;48440;51.224;22.506;2022-10-26T06:13:21;99550.53;;;12.17;85.89
62402;BME280;48440;51.224;22.506;2022-10-26T06:27:37;99571.47;;;12.22;85.40
62402;BME280;48440;51.224;22.506;2022-10-26T06:30:06;99571.78;;;12.20;85.65
62402;BME280;48440;51.224;22.506;2022-10-26T06:32:34;99576.91;;;12.22;85.40
62402;BME280;48440;51.224;22.506;2022-10-26T06:37:45;99584.81;;;12.18;85.42
62402;BME280;48440;51.224;22.506;2022-10-26T06:40:16;99592.97;;;12.18;85.58
62402;BME280;48440;51.224;22.506;2022-10-26T06:42:42;99582.09;;;12.18;85.14
62402;BME280;48440;51.224;22.506;2022-10-26T06:45:12;99583.72;;;12.19;85.34
62402;BME280;48440;51.224;22.506;2022-10-26T06:55:41;99581.84;;;12.25;85.48
62402;BME280;48440;51.224;22.506;2022-10-26T06:58:12;99582.66;;;12.26;85.36
62402;BME280;48440;51.224;22.506;2022-10-26T07:00:40;99591.16;;;12.29;85.02
62402;BME280;48440;51.224;22.506;2022-10-26T07:03:07;99583.53;;;12.31;85.39
62402;BME280;48440;51.224;22.506;2022-10-26T07:05:32;99586.00;;;12.33;85.30
62402;BME280;48440;51.224;22.506;2022-10-26T07:07:58;99588.78;;;12.38;85.28
62402;BME280;48440;51.224;22.506;2022-10-26T07:10:24;99589.09;;;12.41;85.01
62402;BME280;48440;51.224;22.506;2022-10-26T07:12:49;99600.84;;;12.47;85.07
62402;BME280;48440;51.224;22.506;2022-10-26T07:15:15;99598.38;;;12.45;85.29
62402;BME280;48440;51.224;22.506;2022-10-26T07:17:45;99598.38;;;12.45;84.95
62402;BME280;48440;51.224;22.506;2022-10-26T07:20:13;99605.16;;;12.43;84.94
62402;BME280;48440;51.224;22.506;2022-10-26T07:22:39;99609.25;;;12.45;85.12
62402;BME280;48440;51.224;22.506;2022-10-26T07:25:05;99609.00;;;12.47;85.01
62402;BME280;48440;51.224;22.506;2022-10-26T07:27:32;99614.16;;;12.43;84.06
62402;BME280;48440;51.224;22.506;2022-10-26T07:30:01;99629.91;;;12.41;83.88
62402;BME280;48440;51.224;22.506;2022-10-26T07:32:27;99626.63;;;12.39;83.55
62402;BME280;48440;51.224;22.506;2022-10-26T07:34:52;99629.84;;;12.36;83.29
62402;BME280;48440;51.224;22.506;2022-10-26T07:37:18;99629.84;;;12.36;83.59
62402;BME280;48440;51.224;22.506;2022-10-26T07:39:44;99635.50;;;12.30;82.88
62402;BME280;48440;51.224;22.506;2022-10-26T07:42:09;99637.66;;;12.28;83.02
62402;BME280;48440;51.224;22.506;2022-10-26T07:44:35;99636.00;;;12.27;82.83
62402;BME280;48440;51.224;22.506;2022-10-26T07:47:01;99637.16;;;12.31;83.21
62402;BME280;48440;51.224;22.506;2022-10-26T07:49:27;99642.34;;;12.32;83.32
62402;BME280;48440;51.224;22.506;2022-10-26T07:51:52;99649.66;;;12.32;83.41
62402;BME280;48440;51.224;22.506;2022-10-26T07:54:18;99646.69;;;12.33;83.35
62402;BME280;48440;51.224;22.506;2022-10-26T07:56:43;99641.81;;;12.35;83.46
62402;BME280;48440;51.224;22.506;2022-10-26T07:59:11;99641.31;;;12.38;83.33
62402;BME280;48440;51.224;22.506;2022-10-26T08:01:37;99632.06;;;12.39;83.16
62402;BME280;48440;51.224;22.506;2022-10-26T08:04:02;99634.53;;;12.41;83.06
62402;BME280;48440;51.224;22.506;2022-10-26T08:06:28;99642.44;;;12.42;83.05
62402;BME280;48440;51.224;22.506;2022-10-26T08:08:53;99639.72;;;12.42;83.72
62402;BME280;48440;51.224;22.506;2022-10-26T08:11:19;99632.97;;;12.50;83.06
62402;BME280;48440;51.224;22.506;2022-10-26T08:13:44;99640.91;;;12.56;82.72
62402;BME280;48440;51.224;22.506;2022-10-26T08:16:10;99638.81;;;12.64;82.23
62402;BME280;48440;51.224;22.506;2022-10-26T08:18:36;99633.97;;;12.71;81.96
62402;BME280;48440;51.224;22.506;2022-10-26T08:21:04;99631.53;;;12.74;81.54
62402;BME280;48440;51.224;22.506;2022-10-26T08:23:31;99642.47;;;12.79;81.66
62402;BME280;48440;51.224;22.506;2022-10-26T08:26:00;99640.59;;;12.85;81.35
62402;BME280;48440;51.224;22.506;2022-10-26T08:28:27;99645.53;;;12.88;80.92
62402;BME280;48440;51.224;22.506;2022-10-26T08:30:53;99645.25;;;12.89;80.82
62402;BME280;48440;51.224;22.506;2022-10-26T08:33:18;99653.44;;;12.89;80.75
62402;BME280;48440;51.224;22.506;2022-10-26T08:35:44;99653.19;;;12.91;80.46
62402;BME280;48440;51.224;22.506;2022-10-26T08:38:09;99661.34;;;12.91;80.34
62402;BME280;48440;51.224;22.506;2022-10-26T08:40:40;99655.91;;;12.91;79.89
62402;BME280;48440;51.224;22.506;2022-10-26T08:43:52;99658.38;;;12.93;79.79
62402;BME280;48440;51.224;22.506;2022-10-26T08:46:41;99662.22;;;12.97;79.43
62402;BME280;48440;51.224;22.506;2022-10-26T08:52:25;99659.22;;;12.98;79.31
62402;BME280;48440;51.224;22.506;2022-10-26T08:55:13;99659.81;;;13.05;79.44
62402;BME280;48440;51.224;22.506;2022-10-26T08:57:52;99662.63;;;13.15;79.28
62402;BME280;48440;51.224;22.506;2022-10-26T09:00:20;99657.22;;;13.20;78.42
62402;BME280;48440;51.224;22.506;2022-10-26T09:02:52;99663.19;;;13.17;78.48
62402;BME280;48440;51.224;22.506;2022-10-26T09:05:24;99668.38;;;13.19;78.80
62402;BME280;48440;51.224;22.506;2022-10-26T09:08:16;99672.78;;;13.30;78.87
62402;BME280;48440;51.224;22.506;2022-10-26T09:11:01;99676.94;;;13.38;78.79
62402;BME280;48440;51.224;22.506;2022-10-26T09:13:54;99677.47;;;13.35;78.28
62402;BME280;48440;51.224;22.506;2022-10-26T09:21:47;99685.94;;;13.38;77.96
62402;BME280;48440;51.224;22.506;2022-10-26T09:24:31;99690.28;;;13.34;78.45
62402;BME280;48440;51.224;22.506;2022-10-26T09:29:42;99692.69;;;13.31;77.68
62402;BME280;48440;51.224;22.506;2022-10-26T09:32:16;99692.94;;;13.24;78.50
62402;BME280;48440;51.224;22.506;2022-10-26T09:34:49;99695.38;;;13.20;78.08
62402;BME280;48440;51.224;22.506;2022-10-26T09:37:39;99698.63;;;13.17;78.29
62402;BME280;48440;51.224;22.506;2022-10-26T09:43:11;99703.44;;;13.10;79.34
62402;BME280;48440;51.224;22.506;2022-10-26T09:45:51;99711.34;;;13.12;79.35
62402;BME280;48440;51.224;22.506;2022-10-26T09:49:19;99716.50;;;13.08;79.25
62402;BME280;48440;51.224;22.506;2022-10-26T09:51:39;99714.84;;;13.07;79.08
62402;BME280;48440;51.224;22.506;2022-10-26T09:54:14;99718.34;;;13.03;78.24
62402;BME280;48440;51.224;22.506;2022-10-26T09:56:43;99725.75;;;13.07;78.71
62402;BME280;48440;51.224;22.506;2022-10-26T09:59:10;99720.56;;;13.06;78.36
62402;BME280;48440;51.224;22.506;2022-10-26T10:01:38;99730.06;;;13.03;78.50
62402;BME280;48440;51.224;22.506;2022-10-26T10:06:39;99730.63;;;13.05;77.95
62402;BME280;48440;51.224;22.506;2022-10-26T10:09:13;99726.50;;;12.98;78.19
62402;BME280;48440;51.224;22.506;2022-10-26T10:11:46;99724.03;;;12.96;78.67
62402;BME280;48440;51.224;22.506;2022-10-26T10:14:22;99722.97;;;12.97;78.72
62402;BME280;48440;51.224;22.506;2022-10-26T10:16:50;99726.50;;;12.98;78.81
62402;BME280;48440;51.224;22.506;2022-10-26T10:19:31;99725.13;;;13.00;78.88
62402;BME280;48440;51.224;22.506;2022-10-26T10:21:59;99724.38;;;13.05;78.80
62402;BME280;48440;51.224;22.506;2022-10-26T10:24:34;99717.63;;;13.12;78.39
62402;BME280;48440;51.224;22.506;2022-10-26T10:27:16;99716.34;;;13.20;78.43
62402;BME280;48440;51.224;22.506;2022-10-26T10:29:46;99725.66;;;13.24;77.89
62402;BME280;48440;51.224;22.506;2022-10-26T10:32:17;99721.28;;;13.23;78.09
62402;BME280;48440;51.224;22.506;2022-10-26T10:34:45;99728.91;;;13.21;77.49
62402;BME280;48440;51.224;22.506;2022-10-26T10:37:40;99731.06;;;13.19;77.58
62402;BME280;48440;51.224;22.506;2022-10-26T10:40:18;99735.19;;;13.27;76.86
62402;BME280;48440;51.224;22.506;2022-10-26T10:42:46;99734.66;;;13.30;77.08
62402;BME280;48440;51.224;22.506;2022-10-26T10:45:24;99732.50;;;13.32;77.05
62402;BME280;48440;51.224;22.506;2022-10-26T10:48:04;99728.94;;;13.31;76.94
62402;BME280;48440;51.224;22.506;2022-10-26T10:50:38;99734.97;;;13.33;76.81
62402;BME280;48440;51.224;22.506;2022-10-26T11:02:18;99733.06;;;13.34;75.15
62402;BME280;48440;51.224;22.506;2022-10-26T11:07:44;99736.59;;;13.34;75.16
62402;BME280;48440;51.224;22.506;2022-10-26T11:10:14;99749.66;;;13.32;75.32
62402;BME280;48440;51.224;22.506;2022-10-26T11:12:52;99750.50;;;13.33;75.05
62402;BME280;48440;51.224;22.506;2022-10-26T11:15:22;99752.19;;;13.39;75.47
62402;BME280;48440;51.224;22.506;2022-10-26T11:18:11;99751.34;;;13.38;75.12
62402;BME280;48440;51.224;22.506;2022-10-26T11:20:55;99743.22;;;13.43;74.63
62402;BME280;48440;51.224;22.506;2022-10-26T11:23:37;99745.13;;;13.43;75.08
62402;BME280;48440;51.224;22.506;2022-10-26T11:26:16;99744.34;;;13.52;74.86
62402;BME280;48440;51.224;22.506;2022-10-26T11:28:52;99747.44;;;13.66;75.14
62402;BME280;48440;51.224;22.506;2022-10-26T11:31:29;99748.28;;;13.67;75.09
62402;BME280;48440;51.224;22.506;2022-10-26T11:36:38;99735.16;;;13.64;74.38
62402;BME280;48440;51.224;22.506;2022-10-26T11:39:32;99741.41;;;13.59;74.43
62402;BME280;48440;51.224;22.506;2022-10-26T11:47:45;99740.34;;;13.65;74.68
62402;BME280;48440;51.224;22.506;2022-10-26T11:50:26;99736.53;;;13.66;73.75
62402;BME280;48440;51.224;22.506;2022-10-26T11:52:58;99737.38;;;13.67;73.14
62402;BME280;48440;51.224;22.506;2022-10-26T11:55:25;99734.38;;;13.68;73.16
62402;BME280;48440;51.224;22.506;2022-10-26T11:57:52;99732.19;;;13.70;73.03
62402;BME280;48440;51.224;22.506;2022-10-26T12:00:20;99733.06;;;13.76;72.87
62402;BME280;48440;51.224;22.506;2022-10-26T12:02:55;99728.97;;;13.83;72.71
62402;BME280;48440;51.224;22.506;2022-10-26T12:05:47;99726.00;;;13.85;72.41
62402;BME280;48440;51.224;22.506;2022-10-26T12:08:24;99728.22;;;13.93;72.34
62402;BME280;48440;51.224;22.506;2022-10-26T12:11:06;99718.69;;;13.96;72.24
62402;BME280;48440;51.224;22.506;2022-10-26T12:13:41;99729.03;;;13.93;72.19
62402;BME280;48440;51.224;22.506;2022-10-26T12:16:18;99727.13;;;13.94;72.13
62402;BME280;48440;51.224;22.506;2022-10-26T12:19:01;99726.34;;;13.99;72.07
62402;BME280;48440;51.224;22.506;2022-10-26T12:21:30;99727.44;;;14.03;72.10
62402;BME280;48440;51.224;22.506;2022-10-26T12:23:57;99723.91;;;14.07;71.74
62402;BME280;48440;51.224;22.506;2022-10-26T12:29:12;99732.38;;;14.11;71.03
62402;BME280;48440;51.224;22.506;2022-10-26T12:34:22;99728.81;;;14.10;70.96
62402;BME280;48440;51.224;22.506;2022-10-26T12:39:40;99728.84;;;14.15;71.05
62402;BME280;48440;51.224;22.506;2022-10-26T12:50:22;99727.19;;;14.14;69.94
62402;BME280;48440;51.224;22.506;2022-10-26T12:53:05;99729.38;;;14.12;69.55
62402;BME280;48440;51.224;22.506;2022-10-26T12:58:29;99736.72;;;14.07;69.38
62402;BME280;48440;51.224;22.506;2022-10-26T13:09:11;99743.28;;;14.11;70.01
62402;BME280;48440;51.224;22.506;2022-10-26T13:11:44;99741.09;;;14.08;70.50
62402;BME280;48440;51.224;22.506;2022-10-26T13:14:20;99736.16;;;14.05;70.52
62402;BME280;48440;51.224;22.506;2022-10-26T13:16:47;99739.16;;;14.03;70.57
62402;BME280;48440;51.224;22.506;2022-10-26T13:21:52;99733.69;;;13.98;70.99
62402;BME280;48440;51.224;22.506;2022-10-26T13:24:20;99741.31;;;13.91;70.85
62402;BME280;48440;51.224;22.506;2022-10-26T13:30:18;99749.69;;;13.79;71.56
62402;BME280;48440;51.224;22.506;2022-10-26T13:32:54;99753.78;;;13.77;72.01
62402;BME280;48440;51.224;22.506;2022-10-26T13:35:22;99746.13;;;13.74;72.12
62402;BME280;48440;51.224;22.506;2022-10-26T13:37:51;99743.13;;;13.70;72.34
62402;BME280;48440;51.224;22.506;2022-10-26T13:40:20;99746.38;;;13.67;72.46
62402;BME280;48440;51.224;22.506;2022-10-26T13:42:59;99749.34;;;13.66;72.32
62402;BME280;48440;51.224;22.506;2022-10-26T13:45:29;99752.88;;;13.61;72.71
62402;BME280;48440;51.224;22.506;2022-10-26T13:48:12;99753.13;;;13.59;72.57
62402;BME280;48440;51.224;22.506;2022-10-26T13:50:47;99757.19;;;13.57;72.78
62402;BME280;48440;51.224;22.506;2022-10-26T13:53:50;99754.47;;;13.57;73.20
62402;BME280;48440;51.224;22.506;2022-10-26T13:59:21;99759.88;;;13.52;73.04
62402;BME280;48440;51.224;22.506;2022-10-26T14:02:04;99766.16;;;13.47;72.94
62402;BME280;48440;51.224;22.506;2022-10-26T14:04:30;99763.13;;;13.44;73.73
62402;BME280;48440;51.224;22.506;2022-10-26T14:06:56;99773.47;;;13.42;73.42
62402;BME280;48440;51.224;22.506;2022-10-26T14:09:22;99763.38;;;13.42;73.79
62402;BME280;48440;51.224;22.506;2022-10-26T14:11:53;99769.91;;;13.41;73.30
62402;BME280;48440;51.224;22.506;2022-10-26T14:14:22;99766.88;;;13.38;73.78
62402;BME280;48440;51.224;22.506;2022-10-26T14:16:51;99769.06;;;13.36;73.95
62402;BME280;48440;51.224;22.506;2022-10-26T14:19:23;99773.63;;;13.30;73.96
62402;BME280;48440;51.224;22.506;2022-10-26T14:21:50;99771.69;;;13.25;73.79
62402;BME280;48440;51.224;22.506;2022-10-26T14:24:25;99779.06;;;13.25;73.95
62402;BME280;48440;51.224;22.506;2022-10-26T14:26:51;99778.50;;;13.23;74.63
62402;BME280;48440;51.224;22.506;2022-10-26T14:29:19;99777.69;;;13.22;74.33
62402;BME280;48440;51.224;22.506;2022-10-26T14:31:55;99780.69;;;13.21;74.78
62402;BME280;48440;51.224;22.506;2022-10-26T14:34:21;99783.91;;;13.18;74.60
62402;BME280;48440;51.224;22.506;2022-10-26T14:36:54;99783.56;;;13.14;74.86
62402;BME280;48440;51.224;22.506;2022-10-26T14:39:41;99783.00;;;13.12;74.85
62402;BME280;48440;51.224;22.506;2022-10-26T14:42:26;99785.19;;;13.10;74.86
62402;BME280;48440;51.224;22.506;2022-10-26T14:45:01;99797.97;;;13.10;75.26
62402;BME280;48440;51.224;22.506;2022-10-26T14:47:49;99788.66;;;13.06;75.69
62402;BME280;48440;51.224;22.506;2022-10-26T14:50:30;99790.84;;;13.04;75.50
62402;BME280;48440;51.224;22.506;2022-10-26T14:53:12;99791.34;;;13.01;75.51
62402;BME280;48440;51.224;22.506;2022-10-26T14:55:57;99796.50;;;12.97;75.73
62402;BME280;48440;51.224;22.506;2022-10-26T14:58:28;99803.28;;;12.95;75.79
62402;BME280;48440;51.224;22.506;2022-10-26T15:01:13;99802.97;;;12.91;76.03
62402;BME280;48440;51.224;22.506;2022-10-26T15:03:40;99800.78;;;12.88;76.18
62402;BME280;48440;51.224;22.506;2022-10-26T15:06:29;99804.25;;;12.83;76.42
62402;BME280;48440;51.224;22.506;2022-10-26T15:08:58;99805.09;;;12.84;76.40
62402;BME280;48440;51.224;22.506;2022-10-26T15:11:25;99807.50;;;12.80;76.22
62402;BME280;48440;51.224;22.506;2022-10-26T15:13:55;99808.84;;;12.78;76.61
62402;BME280;48440;51.224;22.506;2022-10-26T15:16:24;99812.63;;;12.77;76.64
62402;BME280;48440;51.224;22.506;2022-10-26T15:18:54;99813.13;;;12.74;76.30
62402;BME280;48440;51.224;22.506;2022-10-26T15:21:30;99817.75;;;12.68;76.12
62402;BME280;48440;51.224;22.506;2022-10-26T15:23:57;99818.00;;;12.67;76.43
62402;BME280;48440;51.224;22.506;2022-10-26T15:26:23;99808.69;;;12.63;76.47
62402;BME280;48440;51.224;22.506;2022-10-26T15:28:50;99815.22;;;12.62;76.45
62402;BME280;48440;51.224;22.506;2022-10-26T15:36:31;99825.38;;;12.44;76.99
62402;BME280;48440;51.224;22.506;2022-10-26T15:39:15;99822.06;;;12.42;76.88
62402;BME280;48440;51.224;22.506;2022-10-26T15:41:54;99829.41;;;12.42;76.74
62402;BME280;48440;51.224;22.506;2022-10-26T15:44:29;99828.00;;;12.39;77.46
62402;BME280;48440;51.224;22.506;2022-10-26T15:47:00;99840.22;;;12.37;77.01
62402;BME280;48440;51.224;22.506;2022-10-26T15:49:38;99843.72;;;12.32;77.52
62402;BME280;48440;51.224;22.506;2022-10-26T15:52:13;99842.00;;;12.26;77.36
62402;BME280;48440;51.224;22.506;2022-10-26T15:54:39;99838.41;;;12.20;77.90
62402;BME280;48440;51.224;22.506;2022-10-26T15:57:05;99843.78;;;12.15;77.68
62402;BME280;48440;51.224;22.506;2022-10-26T15:59:32;99845.34;;;12.11;77.93